Home   Weather   Falkland Islands   Stanley   Past weeks
Flag for Falkland Islands

Past Weather in Stanley, Falkland Islands — Yesterday and Last 2 Weeks

Currently: 43 °F. Passing clouds. (Weather station: Mount Pleasant Airport, Falkland Islands). See more current weather

Past Weather in Stanley — Graph

°F

Stanley Temperature Yesterday

Maximum temperature yesterday: 57 °F (at 1:50 pm)
Minimum temperature yesterday: 43 °F (at 6:50 am)
Average temperature yesterday: 51 °F

High & Low Weather Summary for the Past Weeks

 TemperatureHumidityPressure
High61 °F (Sep 28, 3:50 pm)100% (Sep 22, 8:50 am)30.30 "Hg (Sep 22, 8:50 am)
Low32 °F (Sep 24, 5:50 am)31% (Oct 1, 12:21 pm)29.21 "Hg (Sep 26, 4:20 pm)
Average46 °F72%29.79 "Hg
* Reported Sep 21 5:50 am — Oct 6 5:50 am, Stanley. Weather by CustomWeather, © 2022

Note: Actual official high and low records may vary slightly from our data, if they occured in-between our weather recording intervals... More about our weather records

Stanley Weather History for the Previous 24 Hours

Scroll right to see more
 ConditionsComfort  
Time TempWeatherWind HumidityBarometerVisibility
5:50 am
Thu, Oct 6
43 °FClear.7 mph66%29.39 "Hg10 mi
4:50 am45 °FClear.9 mph61%29.39 "Hg10 mi
3:50 am45 °FClear.9 mph71%29.42 "Hg10 mi
2:50 am43 °FClear.2 mph81%29.42 "Hg10 mi
1:50 am45 °FClear.7 mph81%29.42 "Hg10 mi
12:50 am45 °FClear.12 mph76%29.45 "Hg10 mi
11:50 pm
Wed, Oct 5
45 °FClear.5 mph76%29.47 "Hg10 mi
10:50 pm45 °FClear.5 mph71%29.47 "Hg10 mi
9:50 pm46 °FClear.2 mph76%29.50 "Hg10 mi
7:50 pm48 °FSunny.5 mph66%29.50 "Hg10 mi
6:50 pm50 °FSunny.8 mph58%29.50 "Hg10 mi
5:50 pm54 °FSunny.12 mph47%29.53 "Hg10 mi
4:50 pm55 °FPartly sunny.18 mph44%29.50 "HgN/A
4:21 pm55 °FPartly sunny.20 mph41%29.50 "HgN/A
3:50 pm55 °FPartly sunny.18 mph47%29.50 "HgN/A
3:20 pm57 °FPartly sunny.20 mph44%29.50 "HgN/A
2:50 pm55 °FPartly sunny.21 mph44%29.50 "HgN/A
2:20 pm57 °FPartly sunny.2 mph48%29.50 "HgN/A
1:50 pm57 °FPartly sunny.22 mph48%29.50 "HgN/A
12:50 pm55 °FPartly sunny.23 mph51%29.50 "HgN/A
12:20 pm55 °FPartly sunny.24 mph55%29.50 "HgN/A
11:50 am54 °FPartly sunny.22 mph58%29.50 "HgN/A
11:20 am54 °FPartly sunny.21 mph58%29.50 "HgN/A
10:50 am55 °FPartly sunny.24 mph59%29.50 "HgN/A
10:20 am54 °FSunny.23 mph63%29.50 "Hg10 mi
9:50 am54 °FSunny.22 mph58%29.50 "Hg10 mi
9:20 am50 °FSunny.21 mph67%29.50 "Hg10 mi
8:21 am48 °FSunny.22 mph71%29.50 "Hg10 mi
7:50 am46 °FSunny.20 mph76%29.47 "Hg10 mi
Weather by CustomWeather, © 2022

See weather overview